Time;durP1;ratioP1;P1;durP2;ratioP2;P2;SDS_P1;SDS_P2;PMS_P1;PMS_P2;Temp;Humidity;BMP_temperature;BMP_pressure;BME280_temperature;BME280_humidity;BME280_pressure;Samples;Min_cycle;Max_cycle;Signal;HPM_P1;HPM_P2
2023/08/01 00:00:27;;;;;;;;;;;;;;;15.55;100.00;99941.50;5057948;27;20405;-44
2023/08/01 00:02:52;;;;;;;;;;;;;;;15.55;100.00;99941.50;5052423;27;19940;-45
2023/08/01 00:05:18;;;;;;;;;;;;;;;15.53;100.00;99936.34;5059736;28;19923;-46
2023/08/01 00:07:43;;;;;;;;;;;;;;;15.55;100.00;99931.13;5060713;27;20023;-44
2023/08/01 00:10:08;;;;;;;;;;;;;;;15.54;100.00;99916.47;5051669;27;19977;-44
2023/08/01 00:12:33;;;;;;;;;;;;;;;15.53;100.00;99919.91;5055687;28;19928;-43
2023/08/01 00:14:59;;;;;;;;;;;;;;;15.52;100.00;99916.44;5058233;28;19977;-46
2023/08/01 00:17:24;;;;;;;;;;;;;;;15.53;100.00;99922.50;5057593;28;19929;-44
2023/08/01 00:19:49;;;;;;;;;;;;;;;15.53;100.00;99901.75;5058528;28;19985;-43
2023/08/01 00:22:14;;;;;;;;;;;;;;;15.53;100.00;99907.84;5052834;28;20315;-43
2023/08/01 00:24:40;;;;;;;;;;;;;;;15.54;100.00;99914.72;5054449;28;19931;-44
2023/08/01 00:27:05;;;;;;;;;;;;;;;15.55;100.00;99910.41;5035065;28;20014;-44
2023/08/01 00:29:30;;;;;;;;;;;;;;;15.57;100.00;99916.44;5056684;28;19963;-44
2023/08/01 00:31:56;;;;;;;;;;;;;;;15.51;100.00;99916.47;5057314;28;19937;-45
2023/08/01 00:34:21;;;;;;;;;;;;;;;15.54;100.00;99903.50;5057374;28;20272;-44
2023/08/01 00:36:46;;;;;;;;;;;;;;;15.52;100.00;99902.63;5060991;28;19940;-43
2023/08/01 00:39:11;;;;;;;;;;;;;;;15.51;100.00;99901.78;5063592;28;20019;-43
2023/08/01 00:41:37;;;;;;;;;;;;;;;15.50;100.00;99897.47;5058473;27;19934;-43
2023/08/01 00:44:02;;;;;;;;;;;;;;;15.49;100.00;99897.50;5059118;27;20023;-45
2023/08/01 00:46:27;;;;;;;;;;;;;;;15.47;100.00;99896.63;5060759;28;20041;-43
2023/08/01 00:48:53;;;;;;;;;;;;;;;15.47;100.00;99897.53;5063824;28;19926;-44
2023/08/01 00:51:18;;;;;;;;;;;;;;;15.46;100.00;99889.72;5042355;28;19938;-44
2023/08/01 00:53:45;;;;;;;;;;;;;;;15.47;100.00;99894.94;5065118;28;19971;-44
2023/08/01 00:56:10;;;;;;;;;;;;;;;15.45;100.00;99896.66;5064157;28;19920;-43
2023/08/01 00:58:36;;;;;;;;;;;;;;;15.44;100.00;99896.66;5048090;28;19920;-43
2023/08/01 01:01:03;;;;;;;;;;;;;;;15.44;100.00;99900.13;5061247;28;20286;-44
2023/08/01 01:03:28;;;;;;;;;;;;;;;15.45;100.00;99901.84;5063587;28;19924;-44
2023/08/01 01:05:59;;;;;;;;;;;;;;;15.44;100.00;99899.25;5062649;28;20293;-44
2023/08/01 01:08:24;;;;;;;;;;;;;;;15.42;100.00;99903.59;5062047;28;19912;-44
2023/08/01 01:10:49;;;;;;;;;;;;;;;15.39;100.00;99898.44;5063581;28;20019;-43
2023/08/01 01:13:15;;;;;;;;;;;;;;;15.39;100.00;99895.84;5063824;28;19924;-44
2023/08/01 01:15:40;;;;;;;;;;;;;;;15.33;100.00;99893.28;5063221;27;19920;-43
2023/08/01 01:18:05;;;;;;;;;;;;;;;15.25;100.00;99895.94;5059469;27;19952;-43
2023/08/01 01:20:34;;;;;;;;;;;;;;;15.20;100.00;99892.50;5057735;28;20402;-43
2023/08/01 01:23:00;;;;;;;;;;;;;;;15.15;100.00;99886.50;5058133;28;19924;-45
2023/08/01 01:25:26;;;;;;;;;;;;;;;15.12;100.00;99894.28;5059607;28;19928;-44
2023/08/01 01:27:53;;;;;;;;;;;;;;;15.08;100.00;99887.41;5059895;28;19936;-43
2023/08/01 01:30:19;;;;;;;;;;;;;;;15.03;100.00;99892.59;5058468;28;20161;-42
2023/08/01 01:32:45;;;;;;;;;;;;;;;15.01;100.00;99895.22;5061263;28;20009;-44
2023/08/01 01:35:10;;;;;;;;;;;;;;;14.97;100.00;99892.63;5055807;28;19925;-45
2023/08/01 01:37:35;;;;;;;;;;;;;;;14.95;100.00;99896.97;5057690;28;20302;-45
2023/08/01 01:40:00;;;;;;;;;;;;;;;14.94;100.00;99884.91;5060322;28;19928;-44
2023/08/01 01:42:25;;;;;;;;;;;;;;;14.94;100.00;99874.56;5059426;28;19923;-43
2023/08/01 01:44:51;;;;;;;;;;;;;;;14.92;100.00;99884.88;5063203;28;19970;-43
2023/08/01 01:47:17;;;;;;;;;;;;;;;14.95;100.00;99882.28;5063287;28;20370;-46
2023/08/01 01:49:42;;;;;;;;;;;;;;;14.97;100.00;99883.13;5056559;27;19925;-44
2023/08/01 01:52:07;;;;;;;;;;;;;;;15.01;100.00;99886.59;5056531;28;19928;-44
2023/08/01 01:54:32;;;;;;;;;;;;;;;14.99;100.00;99881.41;5065387;28;19935;-45
2023/08/01 01:56:57;;;;;;;;;;;;;;;14.98;100.00;99879.69;5063182;28;19921;-46
2023/08/01 01:59:23;;;;;;;;;;;;;;;14.98;100.00;99884.84;5061973;28;20325;-44
2023/08/01 02:01:48;;;;;;;;;;;;;;;14.95;100.00;99879.72;5060472;28;19976;-44
2023/08/01 02:04:13;;;;;;;;;;;;;;;14.96;100.00;99875.38;5061234;28;19920;-46
2023/08/01 02:06:38;;;;;;;;;;;;;;;14.93;100.00;99883.19;5045142;28;19920;-44
2023/08/01 02:09:04;;;;;;;;;;;;;;;14.91;100.00;99882.31;5060189;28;19925;-44
2023/08/01 02:11:29;;;;;;;;;;;;;;;14.86;100.00;99874.56;5066256;28;20449;-44
2023/08/01 02:13:55;;;;;;;;;;;;;;;14.83;100.00;99878.91;5061748;28;19920;-43
2023/08/01 02:16:20;;;;;;;;;;;;;;;14.82;100.00;99875.47;5064800;27;19925;-43
2023/08/01 02:18:45;;;;;;;;;;;;;;;14.82;100.00;99875.47;5046801;28;20012;-44
2023/08/01 02:21:10;;;;;;;;;;;;;;;14.81;100.00;99873.75;5064485;28;19993;-43
2023/08/01 02:23:37;;;;;;;;;;;;;;;14.81;100.00;99878.06;5057759;27;20336;-43
2023/08/01 02:26:02;;;;;;;;;;;;;;;14.82;100.00;99890.13;5059055;28;20003;-43
2023/08/01 02:28:28;;;;;;;;;;;;;;;14.83;100.00;99886.69;5056194;28;20023;-44
2023/08/01 02:30:53;;;;;;;;;;;;;;;14.80;100.00;99879.78;5057904;28;20011;-44
2023/08/01 02:33:18;;;;;;;;;;;;;;;14.80;100.00;99884.94;5054585;28;19967;-44
2023/08/01 02:35:43;;;;;;;;;;;;;;;14.82;100.00;99883.22;5059689;28;20050;-44
2023/08/01 02:38:09;;;;;;;;;;;;;;;14.80;100.00;99886.69;5055636;28;19932;-44
2023/08/01 02:40:34;;;;;;;;;;;;;;;14.77;100.00;99884.97;5059373;28;20393;-43
2023/08/01 02:42:59;;;;;;;;;;;;;;;14.77;100.00;99887.56;5055201;28;19920;-44
2023/08/01 02:45:25;;;;;;;;;;;;;;;14.73;100.00;99889.28;5055794;28;19921;-43
2023/08/01 02:47:50;;;;;;;;;;;;;;;14.73;100.00;99897.06;5064401;28;19925;-43
2023/08/01 02:50:15;;;;;;;;;;;;;;;14.73;100.00;99899.66;5061217;28;19929;-44
2023/08/01 02:52:40;;;;;;;;;;;;;;;14.70;100.00;99902.25;5059715;28;19925;-44
2023/08/01 02:55:06;;;;;;;;;;;;;;;14.69;100.00;99904.88;5065199;28;19925;-45
2023/08/01 02:57:31;;;;;;;;;;;;;;;14.68;100.00;99905.69;5065351;28;20360;-44
2023/08/01 02:59:56;;;;;;;;;;;;;;;14.64;100.00;99898.84;5055090;27;19935;-47
2023/08/01 03:02:22;;;;;;;;;;;;;;;14.63;100.00;99894.53;5058751;28;20458;-44
2023/08/01 03:04:47;;;;;;;;;;;;;;;14.66;100.00;99890.19;5062038;28;20395;-44
2023/08/01 03:07:12;;;;;;;;;;;;;;;14.61;100.00;99881.59;5063328;28;19921;-44
2023/08/01 03:09:37;;;;;;;;;;;;;;;14.58;100.00;99880.75;5062486;28;19921;-45
2023/08/01 03:12:03;;;;;;;;;;;;;;;14.55;100.00;99889.38;5061963;28;19925;-47
2023/08/01 03:14:28;;;;;;;;;;;;;;;14.51;100.00;99895.44;5063909;28;19931;-45
2023/08/01 03:16:53;;;;;;;;;;;;;;;14.49;100.00;99891.97;5060384;28;19921;-45
2023/08/01 03:19:19;;;;;;;;;;;;;;;14.48;100.00;99898.88;5060837;28;20323;-44
2023/08/01 03:21:44;;;;;;;;;;;;;;;14.48;100.00;99893.72;5045811;28;19930;-46
2023/08/01 03:24:09;;;;;;;;;;;;;;;14.48;100.00;99893.72;5057851;28;19929;-47
2023/08/01 03:26:35;;;;;;;;;;;;;;;14.46;100.00;99890.28;5049084;28;19921;-47
2023/08/01 03:29:00;;;;;;;;;;;;;;;14.48;100.00;99891.13;5038952;28;19924;-45
2023/08/01 03:31:26;;;;;;;;;;;;;;;14.50;100.00;99898.91;5059497;28;19925;-44
2023/08/01 03:33:51;;;;;;;;;;;;;;;14.51;100.00;99899.75;5059748;28;19928;-47
2023/08/01 03:36:16;;;;;;;;;;;;;;;14.53;100.00;99904.03;5060222;28;20442;-47
2023/08/01 03:38:41;;;;;;;;;;;;;;;14.54;100.00;99900.59;5060321;28;20419;-44
2023/08/01 03:41:07;;;;;;;;;;;;;;;14.57;100.00;99900.59;5052478;28;20002;-44
2023/08/01 03:43:32;;;;;;;;;;;;;;;14.59;100.00;99900.59;5038425;28;20342;-46
2023/08/01 03:45:57;;;;;;;;;;;;;;;14.61;100.00;99901.44;5054849;28;19936;-47
2023/08/01 03:48:22;;;;;;;;;;;;;;;14.59;100.00;99895.41;5046713;27;19921;-46
2023/08/01 03:50:48;;;;;;;;;;;;;;;14.59;100.00;99898.00;5054449;28;20419;-44
2023/08/01 03:53:13;;;;;;;;;;;;;;;14.57;100.00;99891.97;5052958;28;20401;-44
2023/08/01 03:55:39;;;;;;;;;;;;;;;14.57;100.00;99904.91;5051028;28;19924;-44
2023/08/01 03:58:04;;;;;;;;;;;;;;;14.57;100.00;99905.78;5050045;28;19916;-44
2023/08/01 04:00:32;;;;;;;;;;;;;;;14.55;100.00;99907.47;5051289;28;20410;-45
2023/08/01 04:03:01;;;;;;;;;;;;;;;14.55;100.00;99906.63;5040668;28;19945;-44
2023/08/01 04:05:27;;;;;;;;;;;;;;;14.54;100.00;99905.75;5048234;28;20420;-43
2023/08/01 04:07:54;;;;;;;;;;;;;;;14.55;100.00;99910.06;5052343;28;19921;-44
2023/08/01 04:10:19;;;;;;;;;;;;;;;14.56;100.00;99911.81;5053991;28;19929;-44
2023/08/01 04:12:45;;;;;;;;;;;;;;;14.58;100.00;99907.47;5059129;27;20082;-45
2023/08/01 04:15:10;;;;;;;;;;;;;;;14.59;100.00;99911.78;5055563;28;19944;-44
2023/08/01 04:17:35;;;;;;;;;;;;;;;14.61;100.00;99910.03;5054614;28;20012;-45
2023/08/01 04:20:00;;;;;;;;;;;;;;;14.62;100.00;99910.91;5057744;28;19928;-44
2023/08/01 04:22:26;;;;;;;;;;;;;;;14.63;100.00;99912.66;5054835;28;19925;-47
2023/08/01 04:24:51;;;;;;;;;;;;;;;14.63;100.00;99912.66;5055987;28;19925;-44
2023/08/01 04:27:16;;;;;;;;;;;;;;;14.63;100.00;99905.75;5053903;28;19927;-46
2023/08/01 04:29:44;;;;;;;;;;;;;;;14.64;100.00;99902.28;5055093;28;20143;-47
2023/08/01 04:32:12;;;;;;;;;;;;;;;14.65;100.00;99909.19;5060211;27;19924;-47
2023/08/01 04:34:37;;;;;;;;;;;;;;;14.69;100.00;99904.88;5053448;28;19927;-45
2023/08/01 04:37:03;;;;;;;;;;;;;;;14.69;100.00;99904.88;5057708;28;19924;-45
2023/08/01 04:39:28;;;;;;;;;;;;;;;14.72;100.00;99902.25;5035905;28;19921;-45
2023/08/01 04:41:53;;;;;;;;;;;;;;;14.72;100.00;99913.44;5063005;28;19924;-46
2023/08/01 04:44:19;;;;;;;;;;;;;;;14.75;100.00;99910.00;5059740;28;19939;-48
2023/08/01 04:46:44;;;;;;;;;;;;;;;14.79;100.00;99913.44;5063991;28;20362;-46
2023/08/01 04:49:09;;;;;;;;;;;;;;;14.82;100.00;99911.69;5064178;28;19931;-47
2023/08/01 04:51:34;;;;;;;;;;;;;;;14.89;100.00;99917.72;5070256;27;20405;-44
2023/08/01 04:54:00;;;;;;;;;;;;;;;14.91;100.00;99921.13;5044100;28;19925;-43
2023/08/01 04:56:25;;;;;;;;;;;;;;;14.95;100.00;99928.88;5058473;28;19973;-46
2023/08/01 04:58:50;;;;;;;;;;;;;;;15.01;100.00;99930.59;5064057;28;19972;-45
2023/08/01 05:01:15;;;;;;;;;;;;;;;15.01;100.00;99922.81;5062251;28;19927;-48
2023/08/01 05:03:40;;;;;;;;;;;;;;;15.03;100.00;99927.13;5061253;28;20019;-44
2023/08/01 05:06:06;;;;;;;;;;;;;;;15.10;100.00;99933.13;5064501;28;20290;-45
2023/08/01 05:08:31;;;;;;;;;;;;;;;15.12;100.00;99921.06;5058726;28;19981;-47
2023/08/01 05:10:56;;;;;;;;;;;;;;;15.11;100.00;99918.47;5062931;28;20390;-47
2023/08/01 05:13:22;;;;;;;;;;;;;;;15.09;100.00;99926.22;5058200;27;20363;-46
2023/08/01 05:15:47;;;;;;;;;;;;;;;15.09;100.00;99935.72;5060326;27;19932;-43
2023/08/01 05:18:13;;;;;;;;;;;;;;;15.05;100.00;99924.53;5041704;28;20310;-44
2023/08/01 05:20:38;;;;;;;;;;;;;;;15.02;100.00;99924.53;5057365;28;19927;-46
2023/08/01 05:23:03;;;;;;;;;;;;;;;14.98;100.00;99918.50;5054812;28;20328;-46
2023/08/01 05:25:29;;;;;;;;;;;;;;;15.00;100.00;99924.56;5060396;27;19965;-45
2023/08/01 05:27:54;;;;;;;;;;;;;;;15.05;100.00;99929.72;5056146;28;19927;-46
2023/08/01 05:30:19;;;;;;;;;;;;;;;15.21;100.00;99922.72;5053934;28;20344;-43
2023/08/01 05:32:46;;;;;;;;;;;;;;;15.40;100.00;99923.44;5052020;28;19928;-46
2023/08/01 05:35:11;;;;;;;;;;;;;;;15.48;100.00;99919.09;5052078;28;19944;-45
2023/08/01 05:37:37;;;;;;;;;;;;;;;15.40;100.00;99920.88;5053142;28;19920;-45
2023/08/01 05:40:03;;;;;;;;;;;;;;;15.34;100.00;99921.75;5055343;28;20385;-46
2023/08/01 05:42:28;;;;;;;;;;;;;;;15.34;100.00;99924.34;5054858;28;19921;-47
2023/08/01 05:44:53;;;;;;;;;;;;;;;15.40;100.00;99939.00;5052370;28;19930;-47
2023/08/01 05:47:19;;;;;;;;;;;;;;;15.57;100.00;99930.25;5051580;28;19925;-47
2023/08/01 05:49:44;;;;;;;;;;;;;;;15.65;100.00;99935.44;5051590;28;19924;-46
2023/08/01 05:52:09;;;;;;;;;;;;;;;15.69;100.00;99933.66;5051462;28;19928;-43
2023/08/01 05:54:35;;;;;;;;;;;;;;;15.69;100.00;99941.44;5053761;28;19978;-45
2023/08/01 05:57:00;;;;;;;;;;;;;;;15.67;100.00;99944.03;5056219;28;19929;-45
2023/08/01 05:59:25;;;;;;;;;;;;;;;15.71;100.00;99952.63;5050537;28;20403;-47
2023/08/01 06:01:50;;;;;;;;;;;;;;;15.72;100.00;99944.88;5037597;28;19924;-43
2023/08/01 06:04:16;;;;;;;;;;;;;;;15.69;100.00;99951.78;5055526;28;19921;-44
2023/08/01 06:06:41;;;;;;;;;;;;;;;15.62;100.00;99952.69;5054548;28;19925;-44
2023/08/01 06:09:06;;;;;;;;;;;;;;;15.62;100.00;99952.69;5053109;28;19927;-42
2023/08/01 06:11:33;;;;;;;;;;;;;;;15.67;100.00;99950.97;5063457;28;19924;-44
2023/08/01 06:13:58;;;;;;;;;;;;;;;15.72;100.00;99946.59;5053951;28;20030;-42
2023/08/01 06:16:23;;;;;;;;;;;;;;;15.83;100.00;99952.53;5064561;27;20023;-44
2023/08/01 06:18:49;;;;;;;;;;;;;;;15.95;100.00;99965.41;5050815;28;19977;-43
2023/08/01 06:21:14;;;;;;;;;;;;;;;15.99;100.00;99959.31;5064132;28;19960;-43
2023/08/01 06:23:39;;;;;;;;;;;;;;;16.02;100.00;99961.91;5063184;28;20479;-44
2023/08/01 06:26:04;;;;;;;;;;;;;;;16.11;100.00;99958.38;5055745;28;19975;-43
2023/08/01 06:28:30;;;;;;;;;;;;;;;16.22;100.00;99948.75;5057176;28;19921;-45
2023/08/01 06:30:56;;;;;;;;;;;;;;;16.31;100.00;99963.34;5054962;27;19917;-44
2023/08/01 06:33:21;;;;;;;;;;;;;;;16.44;100.00;99956.31;5053123;28;20167;-44
2023/08/01 06:35:47;;;;;;;;;;;;;;;16.51;100.00;99958.84;5055882;27;20382;-44
2023/08/01 06:38:12;;;;;;;;;;;;;;;16.62;100.00;99963.91;5058186;28;19929;-42
2023/08/01 06:40:37;;;;;;;;;;;;;;;16.66;100.00;99960.41;5061971;28;19957;-44
2023/08/01 06:43:02;;;;;;;;;;;;;;;16.95;100.00;99959.25;5059183;28;20298;-43
2023/08/01 06:45:28;;;;;;;;;;;;;;;17.29;100.00;99954.44;5058316;28;20007;-42
2023/08/01 06:47:53;;;;;;;;;;;;;;;17.52;100.00;99970.56;5056768;28;20289;-45
2023/08/01 06:50:18;;;;;;;;;;;;;;;17.77;100.00;99981.50;5063460;28;19929;-44
2023/08/01 06:52:43;;;;;;;;;;;;;;;18.12;100.00;99980.94;5058639;28;20030;-44
2023/08/01 06:55:09;;;;;;;;;;;;;;;18.08;100.00;99978.41;5060778;28;19920;-46
2023/08/01 06:57:34;;;;;;;;;;;;;;;18.20;100.00;99980.81;5048992;27;19950;-44
2023/08/01 06:59:59;;;;;;;;;;;;;;;18.24;100.00;99987.69;5055138;28;20008;-47
2023/08/01 07:02:25;;;;;;;;;;;;;;;18.23;100.00;99986.81;5058669;28;20020;-45
2023/08/01 07:04:50;;;;;;;;;;;;;;;18.14;100.00;99983.50;5060763;28;19920;-44
2023/08/01 07:07:15;;;;;;;;;;;;;;;18.08;100.00;99978.41;5062057;27;21149;-44
2023/08/01 07:09:41;;;;;;;;;;;;;;;18.03;100.00;99986.31;5059492;28;20398;-44
2023/08/01 07:12:06;;;;;;;;;;;;;;;17.99;100.00;99994.19;5066526;28;19927;-42
2023/08/01 07:14:31;;;;;;;;;;;;;;;18.22;100.00;99995.53;5063809;28;20350;-45
2023/08/01 07:16:57;;;;;;;;;;;;;;;18.47;100.00;99982.94;5062993;28;20375;-54
2023/08/01 07:19:22;;;;;;;;;;;;;;;18.33;100.00;99984.06;5052337;27;19924;-53
2023/08/01 07:21:48;;;;;;;;;;;;;;;18.12;100.00;99977.47;5042076;28;19920;-53
2023/08/01 07:24:14;;;;;;;;;;;;;;;17.99;100.00;99978.56;5061113;27;19917;-55
2023/08/01 07:26:40;;;;;;;;;;;;;;;17.85;100.00;99976.22;5062891;28;20027;-51
2023/08/01 07:29:05;;;;;;;;;;;;;;;17.72;100.00;99990.28;5054595;28;20361;-52
2023/08/01 07:31:30;;;;;;;;;;;;;;;17.62;100.00;99979.97;5057957;28;20451;-53
2023/08/01 07:33:55;;;;;;;;;;;;;;;17.50;100.00;99971.50;5060560;28;19927;-53
2023/08/01 07:36:21;;;;;;;;;;;;;;;17.44;100.00;99985.44;5060525;28;19924;-52
2023/08/01 07:38:46;;;;;;;;;;;;;;;17.46;100.00;99983.66;5062114;27;19921;-52
2023/08/01 07:41:12;;;;;;;;;;;;;;;17.60;100.00;99984.34;5066206;28;20027;-52
2023/08/01 07:43:37;;;;;;;;;;;;;;;17.69;100.00;99983.34;5061516;27;19925;-53
2023/08/01 07:46:02;;;;;;;;;;;;;;;17.67;100.00;99985.09;5059496;28;19982;-53
2023/08/01 07:48:28;;;;;;;;;;;;;;;17.67;100.00;99988.56;5062550;28;19931;-53
2023/08/01 07:50:53;;;;;;;;;;;;;;;17.74;100.00;99975.50;5068374;27;19921;-54
2023/08/01 07:53:19;;;;;;;;;;;;;;;17.73;100.00;99976.41;5065899;28;19920;-52
2023/08/01 07:55:44;;;;;;;;;;;;;;;17.63;100.00;99986.03;5061889;27;19929;-52
2023/08/01 07:58:09;;;;;;;;;;;;;;;17.50;100.00;99985.34;5055879;28;19921;-49
2023/08/01 08:00:35;;;;;;;;;;;;;;;17.41;100.00;99982.88;5060937;28;19923;-51
2023/08/01 08:03:00;;;;;;;;;;;;;;;17.66;100.00;99986.00;5052945;27;19921;-52
2023/08/01 08:05:26;;;;;;;;;;;;;;;18.07;100.00;99985.34;5059098;28;19928;-52
2023/08/01 08:07:51;;;;;;;;;;;;;;;18.33;100.00;99987.53;5060662;27;19929;-53
2023/08/01 08:10:16;;;;;;;;;;;;;;;18.53;100.00;99984.56;5057307;28;19916;-53
2023/08/01 08:12:41;;;;;;;;;;;;;;;18.76;100.00;99981.56;5061606;27;19929;-53
2023/08/01 08:15:07;;;;;;;;;;;;;;;18.92;100.00;100001.19;5041632;28;19924;-53
2023/08/01 08:17:32;;;;;;;;;;;;;;;18.83;100.00;99990.13;5060375;27;19935;-52
2023/08/01 08:19:57;;;;;;;;;;;;;;;18.65;100.00;99992.16;5062018;28;19928;-53
2023/08/01 08:22:23;;;;;;;;;;;;;;;18.54;100.00;99999.28;5044077;28;19917;-52
2023/08/01 08:24:48;;;;;;;;;;;;;;;18.45;100.00;99995.13;5060924;27;19938;-53
2023/08/01 08:27:13;;;;;;;;;;;;;;;18.77;100.00;99998.91;5061248;28;19929;-53
2023/08/01 08:29:39;;;;;;;;;;;;;;;19.03;100.00;99998.38;5062389;28;20320;-53
2023/08/01 08:32:04;;;;;;;;;;;;;;;19.36;100.00;100006.41;5064071;28;20011;-52
2023/08/01 08:34:29;;;;;;;;;;;;;;;19.48;100.00;100000.91;5061281;28;20292;-53
2023/08/01 08:36:55;;;;;;;;;;;;;;;19.35;100.00;99999.44;5043057;28;19920;-56
2023/08/01 08:39:20;;;;;;;;;;;;;;;19.22;100.00;100006.66;5041549;28;19928;-53
2023/08/01 08:41:47;;;;;;;;;;;;;;;18.79;100.00;100009.28;5060425;28;20425;-53
2023/08/01 08:44:14;;;;;;;;;;;;;;;18.42;100.00;100013.38;5060685;28;20187;-53
2023/08/01 08:46:42;;;;;;;;;;;;;;;18.17;100.00;100009.50;5067155;28;19945;-52
2023/08/01 08:49:08;;;;;;;;;;;;;;;18.09;100.00;100017.44;5062093;28;20355;-53
2023/08/01 08:51:35;;;;;;;;;;;;;;;18.02;100.00;100017.53;5045097;28;20016;-52
2023/08/01 08:54:01;;;;;;;;;;;;;;;18.05;100.00;100020.09;5068097;28;19920;-53
2023/08/01 08:56:28;;;;;;;;;;;;;;;18.17;100.00;100023.34;5041618;28;19970;-53
2023/08/01 08:58:53;;;;;;;;;;;;;;;18.30;100.00;100018.81;5063054;28;20004;-52
2023/08/01 09:01:19;;;;;;;;;;;;;;;18.31;100.00;100025.72;5061679;28;19959;-54
2023/08/01 09:03:44;;;;;;;;;;;;;;;18.39;100.00;100023.00;5065359;28;20388;-52
2023/08/01 09:06:14;;;;;;;;;;;;;;;18.23;100.00;100018.03;5062923;28;20391;-53
2023/08/01 09:08:45;;;;;;;;;;;;;;;18.20;100.00;100025.03;5064704;28;20644;-52
2023/08/01 09:11:10;;;;;;;;;;;;;;;18.17;100.00;100017.28;5059221;28;20362;-53
2023/08/01 09:13:35;;;;;;;;;;;;;;;18.11;100.00;100026.06;5056356;27;19942;-54
2023/08/01 09:16:01;;;;;;;;;;;;;;;18.04;100.00;100026.19;5059570;27;19928;-55
2023/08/01 09:18:27;;;;;;;;;;;;;;;17.90;100.00;100029.88;5058249;28;20389;-54
2023/08/01 09:20:53;;;;;;;;;;;;;;;17.82;100.00;100039.50;5057316;28;19931;-54
2023/08/01 09:23:18;;;;;;;;;;;;;;;17.50;100.00;100036.47;5060165;28;19925;-53
2023/08/01 09:25:44;;;;;;;;;;;;;;;17.29;100.00;100029.78;5059962;28;20011;-55
2023/08/01 09:28:20;;;;;;;;;;;;;;;17.25;100.00;100033.34;5068705;27;19955;-55
2023/08/01 09:30:49;;;;;;;;;;;;;;;17.37;100.00;100035.78;5056964;27;19924;-54
2023/08/01 09:33:15;;;;;;;;;;;;;;;17.40;100.00;100040.91;5037847;28;20382;-53
2023/08/01 09:35:40;;;;;;;;;;;;;;;17.47;100.00;100042.56;5055836;28;19929;-53
2023/08/01 09:38:05;;;;;;;;;;;;;;;17.50;100.00;100045.13;5053876;28;19956;-53
2023/08/01 09:40:37;;;;;;;;;;;;;;;17.55;100.00;100043.34;5055306;28;19934;-46
2023/08/01 09:43:03;;;;;;;;;;;;;;;17.60;100.00;100038.06;5056670;28;19967;-45
2023/08/01 09:45:28;;;;;;;;;;;;;;;17.61;100.00;100045.00;5059825;27;20029;-45
2023/08/01 09:47:53;;;;;;;;;;;;;;;17.64;100.00;100056.19;5057613;27;20365;-45
2023/08/01 09:50:22;;;;;;;;;;;;;;;17.70;100.00;100047.44;5057990;28;19944;-45
2023/08/01 09:52:52;;;;;;;;;;;;;;;17.77;100.00;100056.06;5048878;27;20302;-44
2023/08/01 09:55:21;;;;;;;;;;;;;;;17.88;100.00;100047.22;5054071;28;20401;-46
2023/08/01 09:57:48;;;;;;;;;;;;;;;17.88;100.00;100054.16;5057862;28;19920;-44
2023/08/01 10:00:14;;;;;;;;;;;;;;;17.83;100.00;100061.16;5056047;28;19916;-53
2023/08/01 10:02:42;;;;;;;;;;;;;;;17.81;100.00;100056.00;5062554;28;19929;-52
2023/08/01 10:05:08;;;;;;;;;;;;;;;17.75;100.00;100069.09;5061370;27;19928;-53
2023/08/01 10:07:34;;;;;;;;;;;;;;;17.85;100.00;100068.09;5055003;28;19935;-53
2023/08/01 10:10:01;;;;;;;;;;;;;;;18.04;100.00;100067.81;5035344;27;20023;-54
2023/08/01 10:12:27;;;;;;;;;;;;;;;18.22;100.00;100063.19;5053992;28;20314;-52
2023/08/01 10:14:53;;;;;;;;;;;;;;;18.38;100.00;100062.91;5053197;28;19924;-53
2023/08/01 10:17:18;;;;;;;;;;;;;;;18.49;100.00;100066.19;5058499;28;20370;-55
2023/08/01 10:19:43;;;;;;;;;;;;;;;18.72;100.00;100066.69;5060647;27;19929;-53
2023/08/01 10:22:09;;;;;;;;;;;;;;;18.90;100.00;100081.13;5052068;28;19928;-52
2023/08/01 10:24:35;;;;;;;;;;;;;;;19.08;100.00;100074.72;5048404;27;20260;-54
2023/08/01 10:27:35;;;;;;;;;;;;;;;19.26;100.00;100076.97;5037323;27;19920;-54
2023/08/01 10:30:01;;;;;;;;;;;;;;;19.46;100.00;100084.38;5012263;28;19936;-54
2023/08/01 10:32:29;;;;;;;;;;;;;;;19.52;100.00;100079.03;5056387;28;19920;-54
2023/08/01 10:34:55;;;;;;;;;;;;;;;19.49;100.00;100094.75;5048154;28;19920;-55
2023/08/01 10:37:20;;;;;;;;;;;;;;;19.50;100.00;100073.00;5041613;28;20446;-54
2023/08/01 10:39:55;;;;;;;;;;;;;;;19.48;100.00;100084.34;5051492;28;19975;-54
2023/08/01 10:42:21;;;;;;;;;;;;;;;19.36;100.00;100089.81;5055147;27;19992;-55
2023/08/01 10:44:47;;;;;;;;;;;;;;;19.26;100.00;100076.97;5054523;28;19960;-53
2023/08/01 10:47:12;;;;;;;;;;;;;;;19.32;100.00;100086.41;5052151;28;19928;-55
2023/08/01 10:49:42;;;;;;;;;;;;;;;19.45;100.00;100090.47;5052707;28;19920;-54
2023/08/01 10:52:23;;;;;;;;;;;;;;;19.46;100.00;100083.50;5054538;28;19956;-54
2023/08/01 10:54:55;;;;;;;;;;;;;;;19.54;100.00;100073.78;5053921;28;19924;-54
2023/08/01 10:57:20;;;;;;;;;;;;;;;19.65;100.00;100076.19;5053012;28;19924;-52
2023/08/01 10:59:46;;;;;;;;;;;;;;;19.64;97.64;100082.28;5053149;28;21509;-56
2023/08/01 11:02:11;;;;;;;;;;;;;;;19.47;100.00;100075.66;5052099;27;19977;-54
2023/08/01 11:04:36;;;;;;;;;;;;;;;19.60;100.00;100081.53;5051902;28;20000;-55
2023/08/01 11:07:04;;;;;;;;;;;;;;;19.63;100.00;100078.84;5049459;27;20377;-53
2023/08/01 11:09:29;;;;;;;;;;;;;;;19.63;99.22;100084.06;5049559;27;20293;-54
2023/08/01 11:11:58;;;;;;;;;;;;;;;19.91;100.00;100094.75;5028393;27;19927;-56
2023/08/01 11:14:27;;;;;;;;;;;;;;;20.01;97.01;100090.16;5048460;27;20321;-55
2023/08/01 11:16:56;;;;;;;;;;;;;;;20.03;96.67;100093.63;5052141;28;19929;-56
2023/08/01 11:19:26;;;;;;;;;;;;;;;19.98;99.70;100103.28;5050226;28;19934;-54
2023/08/01 11:21:52;;;;;;;;;;;;;;;19.88;93.42;100094.81;5049799;28;19925;-55
2023/08/01 11:24:18;;;;;;;;;;;;;;;19.80;98.49;100101.94;5050993;28;20406;-53
2023/08/01 11:26:44;;;;;;;;;;;;;;;19.75;96.37;100107.25;5049477;27;19921;-53
2023/08/01 11:29:10;;;;;;;;;;;;;;;19.93;96.80;100108.59;5050919;28;20263;-56
2023/08/01 11:31:36;;;;;;;;;;;;;;;20.07;100.00;100101.31;5055301;28;19923;-54
2023/08/01 11:34:01;;;;;;;;;;;;;;;20.16;96.13;100102.88;5031629;28;19925;-52
2023/08/01 11:36:27;;;;;;;;;;;;;;;20.19;97.34;100101.94;5051605;28;19925;-54
2023/08/01 11:38:52;;;;;;;;;;;;;;;20.08;94.58;100116.09;5030151;27;19924;-54
2023/08/01 11:41:18;;;;;;;;;;;;;;;19.97;91.16;100122.47;5054943;28;19925;-54
2023/08/01 11:43:43;;;;;;;;;;;;;;;19.86;95.10;100132.25;5051433;28;19928;-52
2023/08/01 11:46:09;;;;;;;;;;;;;;;19.75;89.88;100137.72;5053201;28;19916;-54
2023/08/01 11:48:35;;;;;;;;;;;;;;;19.63;86.44;100137.97;5051364;28;20352;-54
2023/08/01 11:51:00;;;;;;;;;;;;;;;19.49;80.74;100133.84;5054479;28;20027;-53
2023/08/01 11:53:27;;;;;;;;;;;;;;;19.56;83.57;100142.41;5050352;28;21100;-55
2023/08/01 11:55:53;;;;;;;;;;;;;;;19.55;88.66;100138.09;5052546;27;19920;-53
2023/08/01 11:58:31;;;;;;;;;;;;;;;19.57;86.54;100128.47;5050058;28;20410;-53
2023/08/01 12:01:07;;;;;;;;;;;;;;;19.62;87.69;100136.25;5053401;28;19932;-53
2023/08/01 12:03:41;;;;;;;;;;;;;;;19.51;87.93;100129.47;5050003;28;19924;-54
2023/08/01 12:06:07;;;;;;;;;;;;;;;19.65;87.65;100150.06;5052616;28;19920;-54
2023/08/01 12:08:33;;;;;;;;;;;;;;;19.74;87.55;100146.44;5051645;27;19939;-54
2023/08/01 12:10:58;;;;;;;;;;;;;;;19.71;81.68;100149.94;5049484;27;19923;-53
2023/08/01 12:13:24;;;;;;;;;;;;;;;19.74;86.42;100149.03;5053148;28;20298;-54
2023/08/01 12:15:50;;;;;;;;;;;;;;;19.76;87.89;100166.34;5063312;28;19928;-54
2023/08/01 12:18:22;;;;;;;;;;;;;;;19.73;84.10;100161.22;5057690;28;19931;-55
2023/08/01 12:20:47;;;;;;;;;;;;;;;19.73;87.62;100153.41;5054935;27;20409;-48
2023/08/01 12:23:13;;;;;;;;;;;;;;;19.74;86.10;100160.31;5056089;28;20441;-52
2023/08/01 12:25:38;;;;;;;;;;;;;;;19.72;81.71;100162.13;5058929;28;20570;-51
2023/08/01 12:28:03;;;;;;;;;;;;;;;19.67;79.79;100163.94;5062688;27;19928;-53